sensor_id;sensor_type;location;lat;lon;timestamp;pressure;altitude;pressure_sealevel;temperature;humidity
66273;BME280;58450;52.150;4.466;2022-10-26T00:01:03;101340.88;;;11.84;100.00
66273;BME280;58450;52.150;4.466;2022-10-26T00:03:33;101339.75;;;11.78;100.00
66273;BME280;58450;52.150;4.466;2022-10-26T00:06:04;101338.16;;;11.84;100.00
66273;BME280;58450;52.150;4.466;2022-10-26T00:08:32;101333.78;;;11.83;100.00
66273;BME280;58450;52.150;4.466;2022-10-26T00:11:02;101327.28;;;11.77;100.00
66273;BME280;58450;52.150;4.466;2022-10-26T00:13:30;101326.94;;;11.80;100.00
66273;BME280;58450;52.150;4.466;2022-10-26T00:15:58;101323.88;;;11.83;100.00
66273;BME280;58450;52.150;4.466;2022-10-26T00:18:26;101312.06;;;11.85;100.00
66273;BME280;58450;52.150;4.466;2022-10-26T00:20:53;101312.41;;;11.81;100.00
66273;BME280;58450;52.150;4.466;2022-10-26T00:23:20;101310.38;;;11.83;100.00
66273;BME280;58450;52.150;4.466;2022-10-26T00:25:54;101312.13;;;11.91;100.00
66273;BME280;58450;52.150;4.466;2022-10-26T00:28:24;101305.94;;;11.91;100.00
66273;BME280;58450;52.150;4.466;2022-10-26T00:30:52;101305.44;;;11.87;100.00
66273;BME280;58450;52.150;4.466;2022-10-26T00:33:19;101292.53;;;11.82;100.00
66273;BME280;58450;52.150;4.466;2022-10-26T00:35:47;101297.06;;;11.82;100.00
66273;BME280;58450;52.150;4.466;2022-10-26T00:38:19;101291.50;;;11.83;100.00
66273;BME280;58450;52.150;4.466;2022-10-26T00:40:47;101288.72;;;11.92;100.00
66273;BME280;58450;52.150;4.466;2022-10-26T00:43:31;101283.31;;;11.92;100.00
66273;BME280;58450;52.150;4.466;2022-10-26T00:46:05;101280.81;;;11.90;100.00
66273;BME280;58450;52.150;4.466;2022-10-26T00:48:37;101287.78;;;11.85;100.00
66273;BME280;58450;52.150;4.466;2022-10-26T00:51:10;101290.13;;;11.88;100.00
66273;BME280;58450;52.150;4.466;2022-10-26T00:53:42;101285.75;;;11.87;100.00
66273;BME280;58450;52.150;4.466;2022-10-26T00:56:10;101287.13;;;11.82;100.00
66273;BME280;58450;52.150;4.466;2022-10-26T00:58:40;101291.00;;;11.80;100.00
66273;BME280;58450;52.150;4.466;2022-10-26T01:01:08;101297.44;;;11.79;100.00
66273;BME280;58450;52.150;4.466;2022-10-26T01:03:37;101297.63;;;11.77;100.00
66273;BME280;58450;52.150;4.466;2022-10-26T01:06:05;101289.91;;;11.74;100.00
66273;BME280;58450;52.150;4.466;2022-10-26T01:08:34;101290.19;;;11.79;100.00
66273;BME280;58450;52.150;4.466;2022-10-26T01:11:02;101287.94;;;11.83;100.00
66273;BME280;58450;52.150;4.466;2022-10-26T01:13:32;101286.94;;;11.84;100.00
66273;BME280;58450;52.150;4.466;2022-10-26T01:16:22;101275.31;;;11.83;100.00
66273;BME280;58450;52.150;4.466;2022-10-26T01:19:31;101276.78;;;11.86;100.00
66273;BME280;58450;52.150;4.466;2022-10-26T01:22:25;101275.31;;;11.83;100.00
66273;BME280;58450;52.150;4.466;2022-10-26T01:25:07;101263.50;;;11.85;100.00
66273;BME280;58450;52.150;4.466;2022-10-26T01:27:45;101263.16;;;11.88;100.00
66273;BME280;58450;52.150;4.466;2022-10-26T01:30:22;101263.31;;;11.86;100.00
66273;BME280;58450;52.150;4.466;2022-10-26T01:33:12;101249.66;;;11.88;100.00
66273;BME280;58450;52.150;4.466;2022-10-26T01:35:53;101251.97;;;11.91;100.00
66273;BME280;58450;52.150;4.466;2022-10-26T01:38:33;101246.97;;;11.88;100.00
66273;BME280;58450;52.150;4.466;2022-10-26T01:41:11;101252.34;;;11.88;100.00
66273;BME280;58450;52.150;4.466;2022-10-26T01:43:49;101245.28;;;11.87;100.00
66273;BME280;58450;52.150;4.466;2022-10-26T01:46:24;101226.41;;;11.87;100.00
66273;BME280;58450;52.150;4.466;2022-10-26T01:49:01;101224.00;;;11.92;100.00
66273;BME280;58450;52.150;4.466;2022-10-26T01:51:33;101224.16;;;11.90;100.00
66273;BME280;58450;52.150;4.466;2022-10-26T01:54:01;101228.09;;;11.88;100.00
66273;BME280;58450;52.150;4.466;2022-10-26T01:56:31;101226.41;;;11.87;100.00
66273;BME280;58450;52.150;4.466;2022-10-26T01:59:12;101231.22;;;11.91;100.00
66273;BME280;58450;52.150;4.466;2022-10-26T02:02:35;101237.28;;;11.93;100.00
66273;BME280;58450;52.150;4.466;2022-10-26T02:05:25;101218.41;;;11.93;100.00
66273;BME280;58450;52.150;4.466;2022-10-26T02:08:06;101226.50;;;11.93;100.00
66273;BME280;58450;52.150;4.466;2022-10-26T02:10:51;101218.19;;;11.95;100.00
66273;BME280;58450;52.150;4.466;2022-10-26T02:13:32;101208.56;;;12.01;100.00
66273;BME280;58450;52.150;4.466;2022-10-26T02:16:20;101198.22;;;12.04;100.00
66273;BME280;58450;52.150;4.466;2022-10-26T02:18:59;101204.47;;;12.05;100.00
66273;BME280;58450;52.150;4.466;2022-10-26T02:21:35;101210.50;;;12.07;100.00
66273;BME280;58450;52.150;4.466;2022-10-26T02:24:09;101205.13;;;12.07;100.00
66273;BME280;58450;52.150;4.466;2022-10-26T02:26:41;101215.00;;;12.00;100.00
66273;BME280;58450;52.150;4.466;2022-10-26T02:29:16;101213.75;;;12.02;100.00
66273;BME280;58450;52.150;4.466;2022-10-26T02:31:47;101215.06;;;12.06;100.00
66273;BME280;58450;52.150;4.466;2022-10-26T02:34:21;101219.25;;;12.09;100.00
66273;BME280;58450;52.150;4.466;2022-10-26T02:36:54;101211.97;;;12.09;100.00
66273;BME280;58450;52.150;4.466;2022-10-26T02:39:28;101213.38;;;12.05;100.00
66273;BME280;58450;52.150;4.466;2022-10-26T02:42:00;101208.38;;;12.02;100.00
66273;BME280;58450;52.150;4.466;2022-10-26T02:44:33;101220.28;;;12.08;100.00
66273;BME280;58450;52.150;4.466;2022-10-26T02:47:07;101213.38;;;12.05;100.00
66273;BME280;58450;52.150;4.466;2022-10-26T02:49:37;101214.25;;;12.06;100.00
66273;BME280;58450;52.150;4.466;2022-10-26T02:52:09;101212.19;;;12.08;100.00
66273;BME280;58450;52.150;4.466;2022-10-26T02:54:49;101211.97;;;12.09;100.00
66273;BME280;58450;52.150;4.466;2022-10-26T02:57:24;101206.78;;;12.08;100.00
66273;BME280;58450;52.150;4.466;2022-10-26T03:00:00;101205.56;;;12.10;100.00
66273;BME280;58450;52.150;4.466;2022-10-26T03:02:27;101200.09;;;12.04;100.00
66273;BME280;58450;52.150;4.466;2022-10-26T03:05:05;101202.03;;;12.10;100.00
66273;BME280;58450;52.150;4.466;2022-10-26T03:07:37;101193.09;;;12.09;100.00
66273;BME280;58450;52.150;4.466;2022-10-26T03:10:06;101189.84;;;12.14;100.00
66273;BME280;58450;52.150;4.466;2022-10-26T03:12:33;101196.44;;;12.11;100.00
66273;BME280;58450;52.150;4.466;2022-10-26T03:15:01;101187.53;;;12.11;100.00
66273;BME280;58450;52.150;4.466;2022-10-26T03:17:29;101194.59;;;12.12;100.00
66273;BME280;58450;52.150;4.466;2022-10-26T03:19:57;101182.41;;;12.16;100.00
66273;BME280;58450;52.150;4.466;2022-10-26T03:22:25;101180.91;;;12.14;100.00
66273;BME280;58450;52.150;4.466;2022-10-26T03:24:52;101177.84;;;12.17;100.00
66273;BME280;58450;52.150;4.466;2022-10-26T03:27:20;101175.72;;;12.12;100.00
66273;BME280;58450;52.150;4.466;2022-10-26T03:29:48;101173.19;;;12.10;100.00
66273;BME280;58450;52.150;4.466;2022-10-26T03:32:15;101180.25;;;12.11;100.00
66273;BME280;58450;52.150;4.466;2022-10-26T03:34:43;101171.91;;;12.06;100.00
66273;BME280;58450;52.150;4.466;2022-10-26T03:37:11;101171.34;;;12.11;100.00
66273;BME280;58450;52.150;4.466;2022-10-26T03:39:39;101173.78;;;12.06;100.00
66273;BME280;58450;52.150;4.466;2022-10-26T03:42:06;101172.16;;;12.11;100.00
66273;BME280;58450;52.150;4.466;2022-10-26T03:44:34;101171.13;;;12.12;100.00
66273;BME280;58450;52.150;4.466;2022-10-26T03:47:01;101173.47;;;12.16;100.00
66273;BME280;58450;52.150;4.466;2022-10-26T03:49:29;101170.31;;;12.12;100.00
66273;BME280;58450;52.150;4.466;2022-10-26T03:51:56;101169.09;;;12.15;100.00
66273;BME280;58450;52.150;4.466;2022-10-26T03:54:25;101171.78;;;12.15;100.00
66273;BME280;58450;52.150;4.466;2022-10-26T03:56:52;101173.66;;;12.14;100.00
66273;BME280;58450;52.150;4.466;2022-10-26T03:59:20;101179.50;;;12.18;100.00
66273;BME280;58450;52.150;4.466;2022-10-26T04:01:47;101174.97;;;12.18;100.00
66273;BME280;58450;52.150;4.466;2022-10-26T04:04:15;101171.41;;;12.18;100.00
66273;BME280;58450;52.150;4.466;2022-10-26T04:06:42;101175.13;;;12.17;100.00
66273;BME280;58450;52.150;4.466;2022-10-26T04:09:10;101175.50;;;12.14;100.00
66273;BME280;58450;52.150;4.466;2022-10-26T04:11:39;101166.78;;;12.11;100.00
66273;BME280;58450;52.150;4.466;2022-10-26T04:14:06;101169.66;;;12.10;100.00
66273;BME280;58450;52.150;4.466;2022-10-26T04:16:34;101168.66;;;12.11;100.00
66273;BME280;58450;52.150;4.466;2022-10-26T04:19:01;101171.72;;;12.08;100.00
66273;BME280;58450;52.150;4.466;2022-10-26T04:21:29;101168.00;;;12.09;100.00
66273;BME280;58450;52.150;4.466;2022-10-26T04:23:57;101168.56;;;12.04;100.00
66273;BME280;58450;52.150;4.466;2022-10-26T04:26:25;101175.25;;;12.08;100.00
66273;BME280;58450;52.150;4.466;2022-10-26T04:28:54;101176.75;;;12.11;100.00
66273;BME280;58450;52.150;4.466;2022-10-26T04:31:21;101170.13;;;12.14;100.00
66273;BME280;58450;52.150;4.466;2022-10-26T04:33:49;101165.56;;;12.14;100.00
66273;BME280;58450;52.150;4.466;2022-10-26T04:36:16;101165.56;;;12.14;100.00
66273;BME280;58450;52.150;4.466;2022-10-26T04:38:44;101162.88;;;12.14;100.00
66273;BME280;58450;52.150;4.466;2022-10-26T04:41:11;101170.38;;;12.19;100.00
66273;BME280;58450;52.150;4.466;2022-10-26T04:43:39;101170.59;;;12.17;100.00
66273;BME280;58450;52.150;4.466;2022-10-26T04:46:07;101167.13;;;12.23;100.00
66273;BME280;58450;52.150;4.466;2022-10-26T04:48:35;101171.03;;;12.21;100.00
66273;BME280;58450;52.150;4.466;2022-10-26T04:51:02;101163.41;;;12.24;100.00
66273;BME280;58450;52.150;4.466;2022-10-26T04:53:30;101163.31;;;12.18;100.00
66273;BME280;58450;52.150;4.466;2022-10-26T04:55:59;101161.66;;;12.17;100.00
66273;BME280;58450;52.150;4.466;2022-10-26T04:58:27;101159.69;;;12.25;100.00
66273;BME280;58450;52.150;4.466;2022-10-26T05:00:56;101158.66;;;12.26;100.00
66273;BME280;58450;52.150;4.466;2022-10-26T05:03:25;101161.81;;;12.30;100.00
66273;BME280;58450;52.150;4.466;2022-10-26T05:05:53;101161.81;;;12.30;100.00
66273;BME280;58450;52.150;4.466;2022-10-26T05:08:24;101159.09;;;12.30;100.00
66273;BME280;58450;52.150;4.466;2022-10-26T05:10:53;101162.44;;;12.32;100.00
66273;BME280;58450;52.150;4.466;2022-10-26T05:13:21;101163.47;;;12.31;100.00
66273;BME280;58450;52.150;4.466;2022-10-26T05:15:51;101153.97;;;12.35;100.00
66273;BME280;58450;52.150;4.466;2022-10-26T05:18:19;101158.53;;;12.35;100.00
66273;BME280;58450;52.150;4.466;2022-10-26T05:20:51;101149.41;;;12.36;100.00
66273;BME280;58450;52.150;4.466;2022-10-26T05:23:19;101150.88;;;12.38;100.00
66273;BME280;58450;52.150;4.466;2022-10-26T05:25:47;101158.34;;;12.36;100.00
66273;BME280;58450;52.150;4.466;2022-10-26T05:28:15;101162.72;;;12.37;100.00
66273;BME280;58450;52.150;4.466;2022-10-26T05:30:44;101154.03;;;12.42;100.00
66273;BME280;58450;52.150;4.466;2022-10-26T05:33:13;101166.50;;;12.43;100.00
66273;BME280;58450;52.150;4.466;2022-10-26T05:35:41;101161.41;;;12.33;100.00
66273;BME280;58450;52.150;4.466;2022-10-26T05:38:12;101161.41;;;12.33;100.00
66273;BME280;58450;52.150;4.466;2022-10-26T05:40:46;101170.81;;;12.37;100.00
66273;BME280;58450;52.150;4.466;2022-10-26T05:43:14;101163.16;;;12.41;100.00
66273;BME280;58450;52.150;4.466;2022-10-26T05:45:42;101153.00;;;12.43;100.00
66273;BME280;58450;52.150;4.466;2022-10-26T05:48:09;101149.47;;;12.43;100.00
66273;BME280;58450;52.150;4.466;2022-10-26T05:50:37;101150.28;;;12.43;100.00
66273;BME280;58450;52.150;4.466;2022-10-26T05:53:04;101148.19;;;12.38;100.00
66273;BME280;58450;52.150;4.466;2022-10-26T05:55:34;101155.63;;;12.36;100.00
66273;BME280;58450;52.150;4.466;2022-10-26T05:58:03;101149.97;;;12.31;100.00
66273;BME280;58450;52.150;4.466;2022-10-26T06:00:31;101145.59;;;12.30;100.00
66273;BME280;58450;52.150;4.466;2022-10-26T06:03:07;101155.38;;;12.31;100.00
66273;BME280;58450;52.150;4.466;2022-10-26T06:05:51;101157.44;;;12.29;100.00
66273;BME280;58450;52.150;4.466;2022-10-26T06:08:21;101155.31;;;12.24;100.00
66273;BME280;58450;52.150;4.466;2022-10-26T06:10:53;101155.09;;;12.26;100.00
66273;BME280;58450;52.150;4.466;2022-10-26T06:13:24;101152.63;;;12.24;100.00
66273;BME280;58450;52.150;4.466;2022-10-26T06:16:09;101148.31;;;12.30;100.00
66273;BME280;58450;52.150;4.466;2022-10-26T06:18:57;101155.31;;;12.24;100.00
66273;BME280;58450;52.150;4.466;2022-10-26T06:21:51;101160.81;;;12.16;100.00
66273;BME280;58450;52.150;4.466;2022-10-26T06:24:34;101151.44;;;12.12;100.00
66273;BME280;58450;52.150;4.466;2022-10-26T06:27:16;101152.09;;;12.14;100.00
66273;BME280;58450;52.150;4.466;2022-10-26T06:29:55;101157.66;;;12.12;100.00
66273;BME280;58450;52.150;4.466;2022-10-26T06:32:26;101157.59;;;12.06;100.00
66273;BME280;58450;52.150;4.466;2022-10-26T06:35:07;101156.34;;;12.08;100.00
66273;BME280;58450;52.150;4.466;2022-10-26T06:37:44;101162.13;;;12.05;100.00
66273;BME280;58450;52.150;4.466;2022-10-26T06:40:14;101165.09;;;12.10;100.00
66273;BME280;58450;52.150;4.466;2022-10-26T06:42:45;101166.41;;;12.15;100.00
66273;BME280;58450;52.150;4.466;2022-10-26T06:45:14;101173.72;;;12.21;100.00
66273;BME280;58450;52.150;4.466;2022-10-26T06:47:47;101182.84;;;12.20;100.00
66273;BME280;58450;52.150;4.466;2022-10-26T06:50:28;101183.97;;;12.25;100.00
66273;BME280;58450;52.150;4.466;2022-10-26T06:53:09;101189.44;;;12.32;100.00
66273;BME280;58450;52.150;4.466;2022-10-26T06:55:47;101188.22;;;12.35;100.00
66273;BME280;58450;52.150;4.466;2022-10-26T06:58:19;101178.13;;;12.44;100.00
66273;BME280;58450;52.150;4.466;2022-10-26T07:00:52;101173.00;;;12.49;100.00
66273;BME280;58450;52.150;4.466;2022-10-26T07:03:21;101177.38;;;12.50;100.00
66273;BME280;58450;52.150;4.466;2022-10-26T07:05:48;101178.06;;;12.59;100.00
66273;BME280;58450;52.150;4.466;2022-10-26T07:08:16;101170.06;;;12.65;100.00
66273;BME280;58450;52.150;4.466;2022-10-26T07:10:45;101179.88;;;12.73;100.00
66273;BME280;58450;52.150;4.466;2022-10-26T07:13:13;101196.41;;;12.85;100.00
66273;BME280;58450;52.150;4.466;2022-10-26T07:15:42;101205.91;;;13.03;100.00
66273;BME280;58450;52.150;4.466;2022-10-26T07:18:10;101197.34;;;13.21;100.00
66273;BME280;58450;52.150;4.466;2022-10-26T07:20:39;101207.16;;;13.28;100.00
66273;BME280;58450;52.150;4.466;2022-10-26T07:23:08;101210.88;;;13.49;100.00
66273;BME280;58450;52.150;4.466;2022-10-26T07:25:37;101209.63;;;14.29;100.00
66273;BME280;58450;52.150;4.466;2022-10-26T07:28:05;101215.41;;;15.35;100.00
66273;BME280;58450;52.150;4.466;2022-10-26T07:30:36;101200.84;;;16.15;100.00
66273;BME280;58450;52.150;4.466;2022-10-26T07:33:07;101204.56;;;16.92;100.00
66273;BME280;58450;52.150;4.466;2022-10-26T07:35:36;101206.97;;;17.32;100.00
66273;BME280;58450;52.150;4.466;2022-10-26T07:38:04;101225.78;;;17.96;100.00
66273;BME280;58450;52.150;4.466;2022-10-26T07:40:32;101224.09;;;18.33;100.00
66273;BME280;58450;52.150;4.466;2022-10-26T07:42:59;101228.00;;;18.06;100.00
66273;BME280;58450;52.150;4.466;2022-10-26T07:45:28;101214.53;;;18.72;100.00
66273;BME280;58450;52.150;4.466;2022-10-26T07:47:56;101226.84;;;19.17;100.00
66273;BME280;58450;52.150;4.466;2022-10-26T07:50:25;101232.44;;;18.99;100.00
66273;BME280;58450;52.150;4.466;2022-10-26T07:52:52;101241.56;;;19.04;100.00
66273;BME280;58450;52.150;4.466;2022-10-26T07:55:20;101246.81;;;19.18;100.00
66273;BME280;58450;52.150;4.466;2022-10-26T07:57:47;101244.66;;;19.44;100.00
66273;BME280;58450;52.150;4.466;2022-10-26T08:00:15;101247.22;;;19.03;100.00
66273;BME280;58450;52.150;4.466;2022-10-26T08:02:43;101245.53;;;18.90;100.00
66273;BME280;58450;52.150;4.466;2022-10-26T08:05:10;101241.13;;;19.43;100.00
66273;BME280;58450;52.150;4.466;2022-10-26T08:07:42;101239.56;;;20.36;100.00
66273;BME280;58450;52.150;4.466;2022-10-26T08:10:11;101231.53;;;20.75;100.00
66273;BME280;58450;52.150;4.466;2022-10-26T08:12:41;101228.19;;;21.19;100.00
66273;BME280;58450;52.150;4.466;2022-10-26T08:15:09;101226.78;;;21.00;100.00
66273;BME280;58450;52.150;4.466;2022-10-26T08:17:37;101221.22;;;20.94;100.00
66273;BME280;58450;52.150;4.466;2022-10-26T08:20:05;101223.34;;;20.46;100.00
66273;BME280;58450;52.150;4.466;2022-10-26T08:22:34;101224.00;;;19.84;100.00
66273;BME280;58450;52.150;4.466;2022-10-26T08:25:03;101231.97;;;19.26;100.00
66273;BME280;58450;52.150;4.466;2022-10-26T08:27:31;101212.47;;;20.34;100.00
66273;BME280;58450;52.150;4.466;2022-10-26T08:29:58;101211.28;;;21.22;100.00
66273;BME280;58450;52.150;4.466;2022-10-26T08:32:26;101218.69;;;22.01;100.00
66273;BME280;58450;52.150;4.466;2022-10-26T08:34:53;101232.53;;;22.61;100.00
66273;BME280;58450;52.150;4.466;2022-10-26T08:37:20;101231.25;;;22.68;100.00
66273;BME280;58450;52.150;4.466;2022-10-26T08:39:48;101237.53;;;22.41;100.00
66273;BME280;58450;52.150;4.466;2022-10-26T08:42:21;101250.00;;;22.05;100.00
66273;BME280;58450;52.150;4.466;2022-10-26T08:44:57;101262.50;;;21.61;100.00
66273;BME280;58450;52.150;4.466;2022-10-26T08:47:29;101262.28;;;21.46;100.00
66273;BME280;58450;52.150;4.466;2022-10-26T08:50:04;101256.66;;;21.18;100.00
66273;BME280;58450;52.150;4.466;2022-10-26T08:52:40;101249.69;;;21.28;100.00
66273;BME280;58450;52.150;4.466;2022-10-26T08:55:15;101258.94;;;19.93;100.00
66273;BME280;58450;52.150;4.466;2022-10-26T08:57:47;101265.22;;;19.34;100.00
66273;BME280;58450;52.150;4.466;2022-10-26T09:00:18;101258.66;;;19.24;100.00
66273;BME280;58450;52.150;4.466;2022-10-26T09:02:48;101252.63;;;18.91;100.00
66273;BME280;58450;52.150;4.466;2022-10-26T09:05:19;101258.41;;;19.13;100.00
66273;BME280;58450;52.150;4.466;2022-10-26T09:07:54;101274.94;;;19.42;100.00
66273;BME280;58450;52.150;4.466;2022-10-26T09:10:43;101275.84;;;19.12;100.00
66273;BME280;58450;52.150;4.466;2022-10-26T09:13:25;101284.97;;;18.08;100.00
66273;BME280;58450;52.150;4.466;2022-10-26T09:16:06;101292.31;;;18.07;100.00
66273;BME280;58450;52.150;4.466;2022-10-26T09:18:51;101289.19;;;17.60;100.00
66273;BME280;58450;52.150;4.466;2022-10-26T09:21:37;101298.94;;;17.67;100.00
66273;BME280;58450;52.150;4.466;2022-10-26T09:24:13;101291.78;;;17.48;100.00
66273;BME280;58450;52.150;4.466;2022-10-26T09:26:52;101302.66;;;17.22;100.00
66273;BME280;58450;52.150;4.466;2022-10-26T09:29:26;101305.22;;;17.17;100.00
66273;BME280;58450;52.150;4.466;2022-10-26T09:31:59;101306.34;;;17.03;100.00
66273;BME280;58450;52.150;4.466;2022-10-26T09:34:32;101312.47;;;16.98;100.00
66273;BME280;58450;52.150;4.466;2022-10-26T09:37:13;101314.53;;;16.96;100.00
66273;BME280;58450;52.150;4.466;2022-10-26T09:39:50;101322.22;;;17.06;100.00
66273;BME280;58450;52.150;4.466;2022-10-26T09:42:30;101318.25;;;17.08;100.00
66273;BME280;58450;52.150;4.466;2022-10-26T09:45:12;101328.81;;;17.23;100.00
66273;BME280;58450;52.150;4.466;2022-10-26T09:47:47;101332.81;;;17.21;100.00
66273;BME280;58450;52.150;4.466;2022-10-26T09:50:22;101326.22;;;17.03;100.00
66273;BME280;58450;52.150;4.466;2022-10-26T09:52:53;101336.53;;;16.88;100.00
66273;BME280;58450;52.150;4.466;2022-10-26T09:55:20;101335.47;;;16.89;100.00
66273;BME280;58450;52.150;4.466;2022-10-26T09:57:51;101332.47;;;17.10;100.00
66273;BME280;58450;52.150;4.466;2022-10-26T10:00:24;101348.75;;;17.42;100.00
66273;BME280;58450;52.150;4.466;2022-10-26T10:02:55;101347.31;;;17.40;100.00
66273;BME280;58450;52.150;4.466;2022-10-26T10:05:28;101362.88;;;17.26;100.00
66273;BME280;58450;52.150;4.466;2022-10-26T10:10:57;101384.56;;;17.07;100.00
66273;BME280;58450;52.150;4.466;2022-10-26T10:13:29;101376.16;;;17.16;100.00
66273;BME280;58450;52.150;4.466;2022-10-26T10:16:05;101385.09;;;17.23;100.00
66273;BME280;58450;52.150;4.466;2022-10-26T10:18:36;101429.13;;;17.06;100.00
66273;BME280;58450;52.150;4.466;2022-10-26T10:21:07;101397.97;;;17.02;100.00
66273;BME280;58450;52.150;4.466;2022-10-26T10:23:46;101393.59;;;17.01;100.00
66273;BME280;58450;52.150;4.466;2022-10-26T10:26:16;101402.59;;;16.95;100.00
66273;BME280;58450;52.150;4.466;2022-10-26T10:28:55;101409.69;;;16.96;100.00
66273;BME280;58450;52.150;4.466;2022-10-26T10:31:28;101418.09;;;16.88;100.00
66273;BME280;58450;52.150;4.466;2022-10-26T10:33:57;101401.13;;;16.92;100.00
66273;BME280;58450;52.150;4.466;2022-10-26T10:36:27;101413.66;;;16.93;100.00
66273;BME280;58450;52.150;4.466;2022-10-26T10:38:56;101413.94;;;16.78;100.00
66273;BME280;58450;52.150;4.466;2022-10-26T10:41:26;101419.94;;;16.87;100.00
66273;BME280;58450;52.150;4.466;2022-10-26T10:44:04;101416.94;;;17.16;100.00
66273;BME280;58450;52.150;4.466;2022-10-26T10:46:35;101410.47;;;17.17;100.00
66273;BME280;58450;52.150;4.466;2022-10-26T10:49:05;101420.81;;;17.33;100.00
66273;BME280;58450;52.150;4.466;2022-10-26T10:51:54;101417.94;;;17.60;100.00
66273;BME280;58450;52.150;4.466;2022-10-26T10:54:27;101409.06;;;17.71;100.00
66273;BME280;58450;52.150;4.466;2022-10-26T10:57:04;101405.88;;;17.75;100.00
66273;BME280;58450;52.150;4.466;2022-10-26T10:59:55;101406.44;;;17.83;100.00
66273;BME280;58450;52.150;4.466;2022-10-26T11:02:44;101413.81;;;18.08;100.00
66273;BME280;58450;52.150;4.466;2022-10-26T11:05:40;101427.31;;;18.22;100.00
66273;BME280;58450;52.150;4.466;2022-10-26T11:08:20;101423.19;;;18.12;100.00
66273;BME280;58450;52.150;4.466;2022-10-26T11:10:58;101431.38;;;18.12;100.00
66273;BME280;58450;52.150;4.466;2022-10-26T11:13:34;101431.44;;;17.99;100.00
66273;BME280;58450;52.150;4.466;2022-10-26T11:16:11;101442.22;;;17.87;100.00
66273;BME280;58450;52.150;4.466;2022-10-26T11:18:47;101448.31;;;17.82;100.00
66273;BME280;58450;52.150;4.466;2022-10-26T11:21:23;101449.91;;;17.97;100.00
66273;BME280;58450;52.150;4.466;2022-10-26T11:24:02;101469.84;;;17.91;100.00
66273;BME280;58450;52.150;4.466;2022-10-26T11:26:38;101459.38;;;17.87;100.00
66273;BME280;58450;52.150;4.466;2022-10-26T11:29:18;101447.78;;;17.99;100.00
66273;BME280;58450;52.150;4.466;2022-10-26T11:31:57;101443.16;;;18.06;100.00
66273;BME280;58450;52.150;4.466;2022-10-26T11:34:35;101463.88;;;18.07;100.00
66273;BME280;58450;52.150;4.466;2022-10-26T11:37:12;101450.16;;;18.21;100.00
66273;BME280;58450;52.150;4.466;2022-10-26T11:39:57;101444.25;;;18.24;100.00
66273;BME280;58450;52.150;4.466;2022-10-26T11:42:31;101464.50;;;18.09;100.00
66273;BME280;58450;52.150;4.466;2022-10-26T11:45:10;101462.38;;;18.11;100.00
66273;BME280;58450;52.150;4.466;2022-10-26T11:47:48;101461.78;;;18.53;100.00
66273;BME280;58450;52.150;4.466;2022-10-26T11:50:24;101468.09;;;18.54;100.00
66273;BME280;58450;52.150;4.466;2022-10-26T11:52:58;101459.28;;;18.70;100.00
66273;BME280;58450;52.150;4.466;2022-10-26T11:55:35;101450.19;;;18.76;100.00
66273;BME280;58450;52.150;4.466;2022-10-26T11:58:04;101459.84;;;18.79;100.00
66273;BME280;58450;52.150;4.466;2022-10-26T12:00:31;101472.72;;;18.90;100.00
66273;BME280;58450;52.150;4.466;2022-10-26T12:03:07;101476.97;;;18.86;100.00
66273;BME280;58450;52.150;4.466;2022-10-26T12:05:45;101463.63;;;18.78;100.00
66273;BME280;58450;52.150;4.466;2022-10-26T12:08:21;101469.50;;;18.56;100.00
66273;BME280;58450;52.150;4.466;2022-10-26T12:10:57;101483.38;;;18.55;100.00
66273;BME280;58450;52.150;4.466;2022-10-26T12:13:34;101479.38;;;18.76;100.00
66273;BME280;58450;52.150;4.466;2022-10-26T12:16:12;101475.81;;;18.94;100.00
66273;BME280;58450;52.150;4.466;2022-10-26T12:18:51;101470.66;;;18.67;100.00
66273;BME280;58450;52.150;4.466;2022-10-26T12:21:27;101489.31;;;18.45;100.00
66273;BME280;58450;52.150;4.466;2022-10-26T12:23:58;101489.50;;;18.50;100.00
66273;BME280;58450;52.150;4.466;2022-10-26T12:26:50;101491.44;;;18.43;100.00
66273;BME280;58450;52.150;4.466;2022-10-26T12:29:44;101517.03;;;18.42;100.00
66273;BME280;58450;52.150;4.466;2022-10-26T12:35:41;101504.06;;;18.12;100.00
66273;BME280;58450;52.150;4.466;2022-10-26T12:41:26;101516.38;;;18.65;100.00
66273;BME280;58450;52.150;4.466;2022-10-26T12:44:01;101509.38;;;19.13;100.00
66273;BME280;58450;52.150;4.466;2022-10-26T12:46:49;101504.25;;;19.54;100.00
66273;BME280;58450;52.150;4.466;2022-10-26T12:52:52;101495.47;;;19.83;100.00
66273;BME280;58450;52.150;4.466;2022-10-26T13:05:12;101493.97;;;20.11;100.00
66273;BME280;58450;52.150;4.466;2022-10-26T13:08:02;101507.97;;;19.90;100.00
66273;BME280;58450;52.150;4.466;2022-10-26T13:10:35;101492.03;;;19.57;100.00
66273;BME280;58450;52.150;4.466;2022-10-26T13:13:07;101515.38;;;19.71;100.00
66273;BME280;58450;52.150;4.466;2022-10-26T13:15:38;101494.19;;;19.97;100.00
66273;BME280;58450;52.150;4.466;2022-10-26T13:18:09;101500.91;;;19.83;100.00
66273;BME280;58450;52.150;4.466;2022-10-26T13:20:53;101496.41;;;20.43;100.00
66273;BME280;58450;52.150;4.466;2022-10-26T13:23:30;101512.03;;;21.07;100.00
66273;BME280;58450;52.150;4.466;2022-10-26T13:26:06;101524.22;;;20.87;100.00
66273;BME280;58450;52.150;4.466;2022-10-26T13:28:48;101527.88;;;20.69;100.00
66273;BME280;58450;52.150;4.466;2022-10-26T13:31:52;101531.59;;;20.87;100.00
66273;BME280;58450;52.150;4.466;2022-10-26T13:34:27;101541.94;;;20.73;100.00